Landels-Hill Big Creek Reserve Entrance, California Weather observations

Data are for 10 minute period ending at time listed.
 Day   Time   Solar   Ave.   Ave.  Ave.  Vector  Max.   Baro.   Total    
  of    of     Rad.   Air    Rel.  Wind   Wind   Wind  Press.  Precip.   
Year   Day            Temp.  Hum.  Speed  Dir.   Gust                    
2016   (PST)  Kw/m2    F      %     mph   deg.    mph    mb.     in.     
-------------------------------------------------------------------------
  36    1:30   0.00   46.1    79    2.7    56     7.1   1024.1    0.00 
  36    1:40   0.00   46.3    79    2.4    50     6.1   1024.2    0.00 
  36    1:50   0.00   46.2    79    2.7    46     6.3   1024.3    0.00 
  36    2:00   0.00   46.2    78    2.3    34     5.8   1024.4    0.00 
  36    2:10   0.00   46.0    79    2.6    40     6.5   1024.4    0.00 
  36    2:20   0.00   46.1    78    2.4    25     5.6   1024.5    0.00 
  36    2:30   0.00   46.0    78    2.7    32     6.3   1024.5    0.00 
  36    2:40   0.00   45.8    78    2.9    23     6.9   1024.5    0.00 
  36    2:50   0.00   45.9    78    3.3    16     7.7   1024.4    0.00 
  36    3:00   0.00   45.9    78    3.7    20     8.4   1024.3    0.00 
  36    3:10   0.00   45.7    79    3.3    31     6.7   1024.2    0.00 
  36    3:20   0.00   46.0    77    3.4    40     6.4   1024.2    0.00 
  36    3:30   0.00   45.9    77    3.0    22     6.9   1024.3    0.00 
  36    3:40   0.00   45.7    78    2.6    30     5.6   1024.3    0.00 
  36    3:50   0.00   45.8    78    3.1    19     6.9   1024.2    0.00 
  36    4:00   0.00   45.8    77    3.7    25     8.1   1024.2    0.00 
  36    4:10   0.00   45.8    77    4.5     6     8.8   1024.2    0.00 
  36    4:20   0.00   45.3    79    3.6    10     6.8   1024.2    0.00 
  36    4:30   0.00   45.3    79    3.1    35     6.7   1024.2    0.00 
  36    4:40   0.00   45.5    77    3.1    37     5.2   1024.3    0.00 
  36    4:50   0.00   45.4    78    3.4    29     7.0   1024.3    0.00 
  36    5:00   0.00   45.1    78    3.1    27     6.9   1024.4    0.00 
  36    5:10   0.00   45.0    79    3.2    21     6.5   1024.5    0.00 
  36    5:20   0.00   45.1    78    3.8     2     8.5   1024.5    0.00 
  36    5:30   0.00   45.0    79    4.3    24     9.5   1024.3    0.00 
  36    5:40   0.00   44.9    79    3.7    19     8.3   1024.3    0.00 
  36    5:50   0.00   44.8    79    4.9     2     8.8   1024.3    0.00 
  36    6:00   0.00   44.6    80    4.3    16     7.6   1024.2    0.00 
  36    6:10   0.00   44.7    79    4.8    15     8.6   1024.3    0.00 
  36    6:20   0.00   44.9    78    5.0    21     9.3   1024.3    0.00 
  36    6:30   0.00   45.1    77    4.6    25     9.6   1024.3    0.00 
  36    6:40   0.00   45.0    76    4.2    31     8.4   1024.3    0.00 
  36    6:50   0.00   45.1    76    5.4    12     9.5   1024.3    0.00 
  36    7:00   0.00   45.0    76    5.1    18    10.6   1024.4    0.00 
  36    7:10   0.01   44.8    76    4.8    17    10.0   1024.6    0.00 
  36    7:20   0.01   45.1    74    4.8    18     9.0   1024.6    0.00 
  36    7:30   0.01   45.4    72    4.7    22     9.7   1024.5    0.00 
  36    7:40   0.01   45.5    71    3.5    40     7.8   1024.6    0.00 
  36    7:50   0.01   46.1    68    3.1    38     9.2   1024.6    0.00 
  36    8:00   0.01   46.1    69    2.6    41     6.9   1024.7    0.00 
  36    8:10   0.01   46.2    69    3.2    39     7.2   1024.8    0.00 
  36    8:20   0.01   46.5    68    3.3    50     7.1   1024.8    0.00 
  36    8:30   0.02   46.6    68    3.4    45     6.5   1024.8    0.00 
  36    8:40   0.03   46.9    68    3.0    44     5.7   1024.8    0.00 
  36    8:50   0.03   47.3    69    3.2    39     6.1   1024.7    0.00 
  36    9:00   0.03   47.6    69    3.2    22     6.9   1024.8    0.00 
  36    9:10   0.03   48.2    69    2.1    31     4.5   1024.8    0.00 
  36    9:20   0.03   48.7    69    1.8     3     4.6   1024.9    0.00 
  36    9:30   0.03   47.9    74    1.6   351     3.2   1024.9    0.00 
  36    9:40   0.03   48.4    74    1.5   357     2.6   1025.0    0.00 
  36    9:50   0.03   49.7    71    1.9   355     4.5   1025.0    0.00 
  36   10:00   0.03   51.4    68    1.0    29     3.4   1024.9    0.00 
  36   10:10   0.03   52.1    67    0.5    62     1.7   1024.9    0.00 
  36   10:20   0.04   52.9    65    1.2    55     2.6   1024.9    0.00 
  36   10:30   0.05   54.5    64    1.5    89     3.1   1024.9    0.00 
  36   10:40   0.06   55.4    63    2.2   135     3.2   1025.0    0.00 
  36   10:50   0.42   56.4    62    2.7   184     4.9   1025.1    0.00 
  36   11:00   0.47   58.2    61    2.7   161     4.9   1025.0    0.00 
  36   11:10   0.48   58.4    59    2.3   129     3.6   1025.1    0.00 
  36   11:20   0.51   59.3    63    1.3   158     3.1   1024.9    0.00 
  36   11:30   0.53   59.9    60    2.2   136     3.4   1025.1    0.00 
  36   11:40   0.54   58.9    57    3.4   146     5.8   1025.3    0.00 
  36   11:50   0.55   59.0    58    3.8   122     6.8   1025.2    0.00 
  36   12:00   0.56   58.7    60    3.8   150     6.1   1025.1    0.00 
  36   12:10   0.54   59.5    65    2.9   183     5.8   1024.8    0.00 
  36   12:20   0.54   59.3    64    2.2   182     4.1   1024.7    0.00 
  36   12:30   0.52   58.5    67    2.9   150     5.5   1024.8    0.00 
  36   12:40   0.53   59.2    65    2.4   173     5.3   1024.7    0.00 
  36   12:50   0.55   59.5    67    1.9   180     4.3   1024.5    0.00 
  36   13:00   0.55   60.8    65    1.6   186     4.2   1024.4    0.00 
  36   13:10   0.56   60.0    66    3.9   169     7.5   1024.6    0.00 
  36   13:20   0.56   60.2    64    3.0   184     6.2   1024.6    0.00 
  36   13:30   0.55   59.9    66    4.1   150     7.7   1024.5    0.00 
  36   13:40   0.53   59.2    72    2.3   135     5.1   1024.4    0.00 
  36   13:50   0.54   59.6    73    1.9   164     5.0   1024.4    0.00 
  36   14:00   0.49   59.8    72    1.9   169     4.4   1024.3    0.00 
  36   14:10   0.45   59.1    72    2.7   158     5.0   1024.2    0.00 
  36   14:20   0.44   58.9    73    2.4   170     5.1   1024.1    0.00 
  36   14:30   0.42   59.5    71    1.7   175     5.0   1024.1    0.00 
  36   14:40   0.41   60.5    69    1.3   204     4.0   1024.1    0.00 
  36   14:50   0.41   60.5    68    2.1   164     4.2   1024.1    0.00 
  36   15:00   0.38   59.6    73    2.2   173     5.8   1024.0    0.00 
  36   15:10   0.39   59.6    64    3.9   177     7.5   1024.3    0.00 
  36   15:20   0.36   60.1    58    3.5   184     7.2   1024.1    0.00 
  36   15:30   0.35   61.1    58    2.3   179     5.9   1024.0    0.00 
  36   15:40   0.29   60.5    62    2.7   176     7.4   1023.9    0.00 
  36   15:50   0.28   61.4    57    1.4   199     3.3   1023.7    0.00 
  36   16:00   0.27   61.1    61    1.6   193     4.7   1023.6    0.00 
  36   16:10   0.24   59.8    68    3.1   175     4.9   1023.5    0.00 
  36   16:20   0.22   59.4    70    1.6   202     3.9   1023.4    0.00 
  36   16:30   0.19   59.1    68    1.9   176     4.5   1023.4    0.00 
  36   16:40   0.17   59.0    69    1.2   250     3.1   1023.3    0.00 
  36   16:50   0.14   57.4    71    0.9   351     2.7   1023.2    0.00 
  36   17:00   0.10   56.6    72    0.7    14     2.2   1023.2    0.00 
  36   17:10   0.04   55.5    72    1.6   353     3.4   1023.1    0.00 
  36   17:20   0.03   54.1    76    1.9    18     3.9   1022.7    0.00 
  36   17:30   0.02   53.6    77    1.8    44     5.2   1022.5    0.00 
  36   17:40   0.01   53.3    77    1.9    52     4.6   1022.6    0.00 
  36   17:50   0.01   53.5    75    1.3    53     4.5   1023.0    0.00 
  36   18:00   0.00   52.4    78    2.1    23     4.2   1023.2    0.00 
  36   18:10   0.00   51.9    80    1.9    37     6.3   1023.0    0.00 
  36   18:20   0.00   51.7    78    2.8    10     7.5   1023.1    0.00 
  36   18:30   0.00   52.1    76    2.1    27     6.1   1023.3    0.00 
  36   18:40   0.00   52.0    75    1.8    52     4.4   1023.4    0.00 
  36   18:50   0.00   51.3    76    2.4    51     5.0   1023.6    0.00 
  36   19:00   0.00   51.4    73    2.7    31     6.0   1023.7    0.00 
  36   19:10   0.00   51.3    72    3.0    60     6.1   1023.9    0.00 
  36   19:20   0.00   51.6    69    2.6    46     7.9   1024.0    0.00 
  36   19:30   0.00   51.2    70    2.8    43     5.9   1024.0    0.00 
  36   19:40   0.00   50.7    71    3.7     5     9.8   1023.9    0.00 
  36   19:50   0.00   50.4    72    4.9     4     9.7   1023.9    0.00 
  36   20:00   0.00   50.5    70    3.7    32     8.3   1024.0    0.00 
  36   20:10   0.00   50.6    69    3.7    51     8.0   1024.1    0.00 
  36   20:20   0.00   50.6    68    3.8    49     7.5   1024.2    0.00 
  36   20:30   0.00   50.6    68    3.3    32     8.0   1024.5    0.00 
  36   20:40   0.00   50.6    67    2.4    18     6.7   1024.5    0.00 
  36   20:50   0.00   50.4    67    3.2    31     8.0   1024.5    0.00 
  36   21:00   0.00   50.3    67    4.1    32     8.0   1024.3    0.00 
  36   21:10   0.00   50.1    67    5.5    14    11.4   1024.5    0.00 
  36   21:20   0.00   50.0    67    4.1    43     8.3   1024.6    0.00 
  36   21:30   0.00   50.2    66    4.0    46     7.8   1024.7    0.00 
  36   21:40   0.00   50.0    66    4.2    32     7.9   1024.7    0.00 
  36   21:50   0.00   50.2    65    3.6    45     7.3   1024.7    0.00 
  36   22:00   0.00   50.1    65    3.9    38     8.4   1024.6    0.00 
  36   22:10   0.00   49.8    66    4.6    24    10.0   1024.6    0.00 
  36   22:20   0.00   49.7    66    4.0    38     8.6   1024.6    0.00 
  36   22:30   0.00   49.9    64    4.6    33     9.0   1024.7    0.00 
  36   22:40   0.00   49.7    65    4.7    24     9.3   1024.7    0.00 
  36   22:50   0.00   50.0    63    5.1    27     9.1   1024.7    0.00 
  36   23:00   0.00   50.4    61    5.5    28    11.1   1024.6    0.00 
  36   23:10   0.00   50.5    60    5.7    30    10.3   1024.8    0.00 
  36   23:20   0.00   50.3    61    5.1    23    10.2   1025.1    0.00 
  36   23:30   0.00   50.3    60    3.0    49     7.2   1025.7    0.00 
  36   23:40   0.00   50.6    59    1.9    45     5.0   1026.2    0.00 
  36   23:50   0.00   49.6    62    4.1    40     8.9   1025.3    0.00 
  37    0:00   0.00   50.4    58    5.2    24    11.0   1025.2    0.00 
  37    0:10   0.00   50.3    59    5.6    16    10.7   1025.0    0.00 
  37    0:20   0.00   50.3    59    5.6    13    10.1   1024.9    0.00 
  37    0:30   0.00   50.0    60    6.9   359    11.1   1024.7    0.00 
  37    0:40   0.00   50.0    60    6.1     9    10.9   1024.4    0.00 
  37    0:50   0.00   50.1    60    5.9    12     9.6   1024.0    0.00 
  37    1:00   0.00   50.7    56    5.5    14    11.2   1024.0    0.00 
  37    1:10   0.00   50.8    57    6.2    15    11.0   1023.8    0.00 
  37    1:20   0.00   50.3    59    6.4     0    10.9   1023.8    0.00 

Return to Big Creek Reserve Entrance graphs page.


Western Regional Climate Center,wrcc@dri.edu